createdAt,value
2022-10-18T00:01:59.871Z,2.90
2022-10-18T00:04:29.335Z,3.07
2022-10-18T00:06:57.434Z,3.10
2022-10-18T00:09:27.492Z,3.00
2022-10-18T00:11:55.632Z,2.80
2022-10-18T00:14:23.769Z,3.40
2022-10-18T00:16:51.838Z,2.90
2022-10-18T00:19:19.911Z,2.90
2022-10-18T00:21:50.875Z,2.63
2022-10-18T00:24:19.033Z,3.00
2022-10-18T00:26:47.110Z,3.50
2022-10-18T00:29:16.124Z,2.80
2022-10-18T00:31:44.599Z,4.07
2022-10-18T00:34:14.684Z,6.13
2022-10-18T00:36:42.829Z,3.53
2022-10-18T00:39:23.162Z,3.10
2022-10-18T00:41:51.557Z,2.93
2022-10-18T00:44:59.920Z,3.20
2022-10-18T00:47:27.986Z,2.70
2022-10-18T00:49:57.977Z,3.30
2022-10-18T00:52:28.833Z,3.10
2022-10-18T00:54:58.545Z,3.70
2022-10-18T00:57:42.904Z,3.30
2022-10-18T01:00:12.008Z,3.03
2022-10-18T01:02:40.981Z,2.67
2022-10-18T01:05:11.212Z,2.80
2022-10-18T01:07:56.705Z,3.13
2022-10-18T01:10:28.677Z,3.67
2022-10-18T01:13:04.525Z,2.70
2022-10-18T01:15:33.415Z,2.67
2022-10-18T01:18:05.350Z,2.60
2022-10-18T01:21:07.291Z,3.20
2022-10-18T01:24:00.674Z,2.83
2022-10-18T01:26:38.217Z,2.60
2022-10-18T01:29:15.065Z,2.87
2022-10-18T01:31:45.634Z,2.67
2022-10-18T01:34:14.056Z,2.80
2022-10-18T01:36:42.623Z,3.73
2022-10-18T01:39:12.422Z,2.50
2022-10-18T01:41:41.014Z,5.13
2022-10-18T01:44:10.769Z,2.30
2022-10-18T01:46:39.393Z,2.83
2022-10-18T01:49:08.857Z,2.93
2022-10-18T01:51:36.965Z,3.37
2022-10-18T01:54:05.253Z,2.97
2022-10-18T01:56:39.437Z,3.10
2022-10-18T01:59:24.235Z,3.10
2022-10-18T02:01:56.482Z,2.93
2022-10-18T02:04:30.671Z,2.97
2022-10-18T02:07:02.104Z,3.40
2022-10-18T02:09:33.531Z,2.23
2022-10-18T02:12:01.668Z,2.70
2022-10-18T02:14:29.729Z,2.70
2022-10-18T02:16:58.126Z,2.60
2022-10-18T02:19:32.389Z,2.80
2022-10-18T02:22:14.391Z,2.60
2022-10-18T02:24:44.277Z,2.90
2022-10-18T02:27:15.160Z,2.50
2022-10-18T02:29:43.850Z,3.43
2022-10-18T02:32:13.594Z,2.50
2022-10-18T02:34:44.046Z,2.50
2022-10-18T02:37:12.408Z,3.17
2022-10-18T02:39:43.912Z,2.90
2022-10-18T02:42:12.142Z,2.70
2022-10-18T02:44:40.333Z,3.13
2022-10-18T02:47:09.457Z,2.40
2022-10-18T02:49:37.541Z,2.90
2022-10-18T02:52:07.110Z,2.80
2022-10-18T02:54:35.488Z,3.00
2022-10-18T02:57:03.580Z,2.30
2022-10-18T02:59:31.670Z,2.43
2022-10-18T03:02:00.052Z,2.80
2022-10-18T03:07:08.638Z,2.93
2022-10-18T03:09:37.995Z,4.93
2022-10-18T03:12:06.520Z,2.80
2022-10-18T03:14:34.580Z,2.40
2022-10-18T03:17:02.677Z,2.53
2022-10-18T03:19:30.782Z,2.60
2022-10-18T03:21:58.834Z,2.83
2022-10-18T03:24:29.998Z,3.20
2022-10-18T03:27:07.630Z,2.70
2022-10-18T03:29:36.006Z,3.03
2022-10-18T03:32:04.029Z,2.40
2022-10-18T03:34:32.112Z,2.30
2022-10-18T03:37:03.361Z,2.60
2022-10-18T03:39:33.439Z,2.47
2022-10-18T03:42:02.907Z,3.93
2022-10-18T03:44:31.012Z,2.60
2022-10-18T03:46:59.412Z,3.23
2022-10-18T03:49:27.547Z,2.50
2022-10-18T03:51:55.605Z,2.20
2022-10-18T03:54:23.713Z,2.17
2022-10-18T03:56:51.847Z,2.23
2022-10-18T03:59:24.297Z,2.50
2022-10-18T04:01:52.824Z,2.60
2022-10-18T04:04:21.094Z,2.20
2022-10-18T04:06:49.264Z,3.07
2022-10-18T04:09:17.317Z,2.90
2022-10-18T04:11:45.336Z,2.50
2022-10-18T04:14:13.399Z,2.50
2022-10-18T04:16:42.824Z,2.27
2022-10-18T04:19:10.929Z,2.30
2022-10-18T04:21:39.053Z,3.23
2022-10-18T04:24:07.578Z,2.70
2022-10-18T04:26:36.016Z,2.70
2022-10-18T04:29:04.285Z,2.40
2022-10-18T04:31:32.389Z,2.37
2022-10-18T04:34:07.780Z,2.40
2022-10-18T04:36:35.825Z,2.63
2022-10-18T04:39:04.143Z,2.60
2022-10-18T04:41:32.170Z,2.50
2022-10-18T04:44:00.243Z,2.30
2022-10-18T04:46:28.310Z,2.33
2022-10-18T04:48:56.393Z,2.50
2022-10-18T04:51:25.862Z,3.13
2022-10-18T04:53:54.246Z,2.67
2022-10-18T04:56:22.432Z,2.63
2022-10-18T04:58:50.546Z,2.70
2022-10-18T05:01:19.015Z,2.70
2022-10-18T05:03:47.231Z,2.50
2022-10-18T05:06:15.279Z,2.50
2022-10-18T05:08:44.754Z,2.43
2022-10-18T05:11:12.853Z,2.20
2022-10-18T05:13:40.936Z,2.83
2022-10-18T05:16:09.060Z,2.60
2022-10-18T05:18:37.164Z,2.10
2022-10-18T05:21:05.461Z,2.53
2022-10-18T05:23:33.537Z,2.60
2022-10-18T05:26:04.343Z,2.43
2022-10-18T05:28:40.827Z,2.30
2022-10-18T05:31:10.162Z,2.53
2022-10-18T05:33:41.305Z,2.47
2022-10-18T05:36:09.949Z,2.53
2022-10-18T05:38:40.154Z,2.63
2022-10-18T05:41:09.673Z,2.67
2022-10-18T05:43:37.748Z,2.43
2022-10-18T05:46:11.861Z,2.63
2022-10-18T05:48:43.206Z,2.80
2022-10-18T05:51:11.192Z,2.90
2022-10-18T05:53:39.223Z,2.80
2022-10-18T05:56:09.168Z,3.07
2022-10-18T05:58:46.072Z,2.93
2022-10-18T06:01:14.127Z,2.80
2022-10-18T06:03:42.310Z,2.63
2022-10-18T06:06:11.139Z,2.63
2022-10-18T06:08:39.393Z,2.90
2022-10-18T06:11:09.862Z,2.33
2022-10-18T06:13:41.366Z,2.87
2022-10-18T06:16:25.440Z,2.87
2022-10-18T06:18:56.622Z,2.60
2022-10-18T06:21:25.023Z,3.57
2022-10-18T06:23:53.378Z,2.63
2022-10-18T06:26:23.135Z,3.00
2022-10-18T06:28:51.266Z,3.27
2022-10-18T06:31:20.622Z,3.23
2022-10-18T06:33:49.285Z,4.27
2022-10-18T06:36:18.095Z,3.00
2022-10-18T06:38:46.201Z,2.93
2022-10-18T06:41:14.253Z,2.23
2022-10-18T06:43:43.921Z,2.93
2022-10-18T06:46:11.972Z,2.73
2022-10-18T06:48:40.283Z,3.00
2022-10-18T06:51:08.774Z,3.00
2022-10-18T06:53:59.022Z,4.50
2022-10-18T06:56:31.987Z,2.83
2022-10-18T06:59:08.854Z,2.73
2022-10-18T07:01:39.911Z,2.23
2022-10-18T07:04:08.568Z,3.10
2022-10-18T07:06:36.664Z,3.37
2022-10-18T07:09:04.867Z,3.17
2022-10-18T07:11:33.012Z,3.33
2022-10-18T07:14:04.759Z,2.50
2022-10-18T07:16:36.182Z,3.03
2022-10-18T07:19:10.181Z,3.53
2022-10-18T07:21:38.221Z,3.30
2022-10-18T07:24:06.698Z,3.77
2022-10-18T07:26:35.321Z,4.40
2022-10-18T07:29:06.968Z,3.30
2022-10-18T07:31:35.303Z,3.43
2022-10-18T07:34:05.017Z,3.30
2022-10-18T07:36:36.093Z,2.90
2022-10-18T07:39:06.297Z,3.20
2022-10-18T07:41:34.565Z,3.50
2022-10-18T07:44:04.529Z,3.00
2022-10-18T07:46:32.578Z,3.40
2022-10-18T07:49:00.662Z,2.80
2022-10-18T07:51:30.933Z,2.93
2022-10-18T07:53:59.010Z,3.10
2022-10-18T07:56:27.113Z,3.10
2022-10-18T07:58:56.484Z,2.80
2022-10-18T08:01:25.976Z,2.40
2022-10-18T08:03:54.196Z,3.30
2022-10-18T08:06:22.817Z,3.10
2022-10-18T08:08:50.970Z,3.90
2022-10-18T08:11:19.936Z,3.10
2022-10-18T08:13:50.422Z,2.70
2022-10-18T08:16:20.049Z,4.80
2022-10-18T08:18:49.592Z,3.20
2022-10-18T08:21:17.927Z,2.90
2022-10-18T08:23:45.995Z,3.17
2022-10-18T08:26:14.679Z,3.07
2022-10-18T08:28:49.058Z,2.80
2022-10-18T08:31:28.899Z,3.07
2022-10-18T08:33:58.532Z,3.30
2022-10-18T08:36:26.655Z,5.10
2022-10-18T08:38:54.785Z,3.93
2022-10-18T08:41:30.990Z,3.00
2022-10-18T08:44:07.104Z,4.20
2022-10-18T08:46:36.258Z,3.10
2022-10-18T08:49:12.731Z,3.47
2022-10-18T08:51:43.270Z,3.77
2022-10-18T08:54:13.210Z,5.57
2022-10-18T08:56:41.726Z,3.30
2022-10-18T08:59:10.932Z,5.67
2022-10-18T09:01:43.346Z,4.07
2022-10-18T09:04:21.232Z,7.07
2022-10-18T09:07:08.215Z,4.60
2022-10-18T09:09:39.257Z,4.73
2022-10-18T09:12:15.210Z,5.00
2022-10-18T09:15:13.336Z,4.20
2022-10-18T09:17:47.182Z,4.47
2022-10-18T09:20:23.058Z,4.73
2022-10-18T09:22:55.861Z,4.03
2022-10-18T09:25:27.391Z,3.97
2022-10-18T09:27:57.444Z,4.20
2022-10-18T09:30:34.382Z,4.10
2022-10-18T09:33:07.405Z,4.20
2022-10-18T09:35:40.241Z,4.47
2022-10-18T09:38:11.759Z,4.87
2022-10-18T09:40:44.576Z,4.17
2022-10-18T09:43:15.202Z,4.80
2022-10-18T09:45:44.194Z,5.10
2022-10-18T09:48:14.292Z,4.63
2022-10-18T09:50:45.276Z,4.10
2022-10-18T09:53:17.170Z,3.73
2022-10-18T09:55:57.273Z,5.07
2022-10-18T09:58:25.321Z,4.60
2022-10-18T10:00:53.372Z,4.60
2022-10-18T10:03:21.491Z,4.23
2022-10-18T10:06:15.999Z,5.43
2022-10-18T10:08:44.376Z,3.80
2022-10-18T10:11:31.124Z,4.00
2022-10-18T10:14:00.020Z,4.37
2022-10-18T10:16:28.244Z,5.60
2022-10-18T10:18:56.469Z,6.00
2022-10-18T10:21:26.038Z,4.73
2022-10-18T10:23:54.978Z,5.63
2022-10-18T10:26:24.161Z,4.30
2022-10-18T10:28:52.371Z,4.80
2022-10-18T10:31:26.985Z,4.40
2022-10-18T10:34:00.173Z,4.97
2022-10-18T10:36:29.674Z,5.13
2022-10-18T10:39:05.257Z,4.87
2022-10-18T10:44:06.424Z,5.53
2022-10-18T10:46:37.661Z,5.90
2022-10-18T10:49:39.258Z,5.93
2022-10-18T10:52:08.438Z,5.47
2022-10-18T10:54:40.476Z,6.30
2022-10-18T10:57:17.565Z,5.87
2022-10-18T10:59:47.006Z,6.23
2022-10-18T11:02:21.816Z,6.40
2022-10-18T11:04:51.016Z,6.77
2022-10-18T11:07:24.382Z,7.20
2022-10-18T11:09:58.302Z,4.87
2022-10-18T11:12:33.289Z,5.73
2022-10-18T11:15:13.711Z,7.57
2022-10-18T11:17:44.085Z,6.37
2022-10-18T11:20:24.090Z,5.03
2022-10-18T11:23:01.209Z,6.70
2022-10-18T11:25:59.730Z,5.30
2022-10-18T11:28:34.684Z,5.97
2022-10-18T11:31:09.438Z,5.63
2022-10-18T11:34:07.571Z,6.07
2022-10-18T11:36:36.774Z,7.07
2022-10-18T11:39:17.987Z,8.00
2022-10-18T11:41:47.885Z,6.47
2022-10-18T11:44:19.982Z,6.13
2022-10-18T11:46:57.776Z,8.90
2022-10-18T11:49:33.596Z,7.87
2022-10-18T11:52:09.478Z,6.57
2022-10-18T11:54:49.538Z,7.33
2022-10-18T11:57:26.282Z,9.40
2022-10-18T11:59:57.798Z,7.23
2022-10-18T12:02:41.854Z,8.70
2022-10-18T12:05:25.658Z,7.07
2022-10-18T12:07:56.889Z,9.30
2022-10-18T12:10:38.102Z,6.47
2022-10-18T12:16:05.731Z,7.50
2022-10-18T12:18:33.783Z,8.00
2022-10-18T12:21:01.862Z,8.13
2022-10-18T12:23:36.170Z,8.67
2022-10-18T12:26:06.697Z,8.10
2022-10-18T12:28:38.796Z,7.10
2022-10-18T12:31:14.973Z,8.67
2022-10-18T12:33:45.380Z,10.00
2022-10-18T12:36:20.039Z,8.50
2022-10-18T12:38:49.114Z,8.23
2022-10-18T12:41:20.714Z,8.60
2022-10-18T12:43:52.684Z,7.30
2022-10-18T12:46:20.810Z,8.60
2022-10-18T12:48:54.300Z,9.00
2022-10-18T12:51:22.976Z,9.93
2022-10-18T12:53:53.457Z,8.90
2022-10-18T12:56:41.786Z,10.47
2022-10-18T12:59:26.758Z,9.03
2022-10-18T13:02:10.643Z,11.77
2022-10-18T13:04:38.969Z,8.27
2022-10-18T13:07:19.550Z,8.30
2022-10-18T13:10:35.585Z,9.20
2022-10-18T13:13:38.214Z,9.47
2022-10-18T13:16:08.297Z,9.57
2022-10-18T13:18:42.901Z,10.50
2022-10-18T13:21:16.904Z,8.90
2022-10-18T13:23:48.819Z,9.13
2022-10-18T13:26:20.576Z,11.90
2022-10-18T13:28:53.592Z,10.47
2022-10-18T13:31:24.864Z,9.77
2022-10-18T13:33:52.966Z,9.90
2022-10-18T13:36:25.797Z,8.07
2022-10-18T13:39:04.403Z,10.30
2022-10-18T13:41:35.387Z,8.87
2022-10-18T13:44:28.413Z,7.90
2022-10-18T13:47:36.610Z,9.40
2022-10-18T13:50:35.711Z,9.40
2022-10-18T13:53:40.278Z,9.43
2022-10-18T13:56:17.281Z,8.53
2022-10-18T13:59:05.879Z,8.63
2022-10-18T14:01:42.489Z,9.47
2022-10-18T14:04:25.926Z,9.23
2022-10-18T14:06:57.580Z,8.27
2022-10-18T14:09:43.624Z,8.83
2022-10-18T14:12:15.942Z,10.03
2022-10-18T14:14:45.024Z,11.30
2022-10-18T14:17:20.323Z,8.27
2022-10-18T14:19:50.399Z,8.50
2022-10-18T14:22:22.789Z,8.23
2022-10-18T14:24:52.597Z,8.00
2022-10-18T14:27:21.603Z,7.97
2022-10-18T14:30:10.230Z,7.83
2022-10-18T14:32:43.129Z,7.60
2022-10-18T14:35:32.185Z,9.20
2022-10-18T14:38:02.095Z,10.40
2022-10-18T14:40:32.437Z,7.77
2022-10-18T14:43:03.790Z,8.20
2022-10-18T14:45:31.852Z,8.70
2022-10-18T14:48:25.384Z,8.80
2022-10-18T14:50:59.204Z,10.80
2022-10-18T14:53:30.811Z,8.57
2022-10-18T14:56:00.805Z,12.97
2022-10-18T14:58:28.880Z,7.20
2022-10-18T15:00:57.019Z,7.50
2022-10-18T15:03:28.329Z,7.23
2022-10-18T15:06:03.825Z,11.60
2022-10-18T15:08:33.947Z,7.90
2022-10-18T15:11:04.804Z,7.63
2022-10-18T15:13:33.223Z,6.50
2022-10-18T15:16:01.683Z,7.13
2022-10-18T15:21:25.056Z,9.47
2022-10-18T15:23:54.263Z,7.80
2022-10-18T15:26:24.287Z,9.07
2022-10-18T15:29:01.547Z,6.27
2022-10-18T15:31:37.007Z,9.03
2022-10-18T15:34:11.703Z,7.80
2022-10-18T15:36:39.755Z,9.83
2022-10-18T15:39:09.079Z,6.70
2022-10-18T15:41:38.173Z,6.17
2022-10-18T15:44:13.335Z,7.70
2022-10-18T15:46:42.633Z,6.63
2022-10-18T15:50:01.422Z,6.53
2022-10-18T15:52:39.832Z,7.40
2022-10-18T15:55:26.948Z,6.00
2022-10-18T15:57:55.002Z,7.40
2022-10-18T16:00:23.532Z,9.90
2022-10-18T16:02:51.584Z,6.67
2022-10-18T16:05:21.437Z,5.53
2022-10-18T16:07:53.078Z,5.13
2022-10-18T16:10:21.195Z,9.13
2022-10-18T16:12:49.346Z,5.60
2022-10-18T16:15:17.603Z,5.30
2022-10-18T16:17:45.686Z,5.23
2022-10-18T16:20:15.432Z,6.07
2022-10-18T16:22:44.926Z,5.07
2022-10-18T16:25:13.022Z,4.93
2022-10-18T16:27:41.125Z,5.00
2022-10-18T16:30:12.631Z,4.40
2022-10-18T16:32:43.683Z,5.10
2022-10-18T16:35:12.560Z,5.07
2022-10-18T16:37:49.410Z,5.80
2022-10-18T16:40:24.205Z,5.40
2022-10-18T16:42:52.632Z,3.90
2022-10-18T16:45:20.681Z,4.50
2022-10-18T16:47:48.813Z,6.33
2022-10-18T16:50:17.534Z,3.13
2022-10-18T16:52:45.669Z,2.70
2022-10-18T16:55:21.368Z,4.30
2022-10-18T16:57:57.270Z,4.53
2022-10-18T17:00:25.625Z,4.00
2022-10-18T17:02:53.697Z,6.83
2022-10-18T17:05:23.184Z,5.20
2022-10-18T17:07:51.276Z,5.30
2022-10-18T17:10:20.413Z,3.20
2022-10-18T17:12:48.456Z,6.40
2022-10-18T17:15:18.003Z,5.40
2022-10-18T17:17:47.620Z,5.90
2022-10-18T17:20:19.893Z,2.77
2022-10-18T17:22:48.229Z,5.70
2022-10-18T17:25:16.666Z,3.80
2022-10-18T17:27:45.186Z,4.07
2022-10-18T17:30:14.643Z,4.50
2022-10-18T17:32:44.724Z,4.77
2022-10-18T17:35:15.589Z,4.23
2022-10-18T17:37:45.991Z,3.53
2022-10-18T17:40:40.709Z,5.43
2022-10-18T17:43:08.838Z,3.40
2022-10-18T17:45:36.917Z,3.10
2022-10-18T17:48:06.580Z,3.73
2022-10-18T17:50:35.033Z,4.57
2022-10-18T17:53:03.498Z,6.13
2022-10-18T17:55:31.906Z,3.90
2022-10-18T17:58:00.279Z,4.07
2022-10-18T18:00:28.648Z,4.10
2022-10-18T18:02:58.544Z,4.40
2022-10-18T18:05:30.747Z,3.80
2022-10-18T18:08:03.990Z,4.10
2022-10-18T18:10:33.802Z,4.30
2022-10-18T18:13:01.914Z,5.47
2022-10-18T18:15:30.271Z,5.00
2022-10-18T18:17:58.512Z,4.23
2022-10-18T18:20:28.480Z,3.83
2022-10-18T18:22:56.773Z,8.37
2022-10-18T18:25:33.645Z,4.37
2022-10-18T18:28:06.619Z,4.13
2022-10-18T18:30:35.912Z,4.60
2022-10-18T18:33:03.995Z,5.50
2022-10-18T18:35:33.446Z,9.00
2022-10-18T18:38:01.797Z,4.33
2022-10-18T18:40:30.052Z,6.47
2022-10-18T18:43:12.555Z,5.83
2022-10-18T18:45:52.812Z,4.03
2022-10-18T18:48:21.174Z,5.80
2022-10-18T18:50:51.901Z,8.30
2022-10-18T18:53:20.193Z,6.50
2022-10-18T18:55:50.653Z,5.43
2022-10-18T18:58:18.684Z,6.80
2022-10-18T19:00:46.955Z,5.67
2022-10-18T19:03:15.500Z,4.40
2022-10-18T19:05:43.610Z,7.00
2022-10-18T19:08:13.295Z,4.10
2022-10-18T19:10:41.770Z,4.27
2022-10-18T19:13:09.890Z,5.63
2022-10-18T19:15:37.956Z,3.87
2022-10-18T19:18:06.104Z,4.10
2022-10-18T19:20:43.020Z,4.43
2022-10-18T19:23:12.662Z,6.23
2022-10-18T19:25:40.981Z,3.73
2022-10-18T19:28:09.441Z,4.17
2022-10-18T19:30:37.509Z,4.20
2022-10-18T19:33:05.573Z,4.00
2022-10-18T19:35:33.682Z,3.10
2022-10-18T19:38:07.968Z,4.97
2022-10-18T19:40:37.462Z,3.40
2022-10-18T19:43:05.710Z,4.23
2022-10-18T19:45:33.742Z,3.40
2022-10-18T19:48:01.761Z,6.93
2022-10-18T19:50:29.857Z,6.33
2022-10-18T19:52:57.925Z,6.00
2022-10-18T19:55:29.262Z,6.83
2022-10-18T19:57:58.686Z,6.63
2022-10-18T20:00:26.777Z,9.67
2022-10-18T20:02:54.833Z,7.37
2022-10-18T20:05:23.013Z,6.83
2022-10-18T20:07:51.253Z,5.33
2022-10-18T20:10:19.354Z,7.10
2022-10-18T20:12:47.403Z,7.50
2022-10-18T20:15:25.920Z,8.47
2022-10-18T20:17:53.961Z,5.63
2022-10-18T20:20:22.378Z,9.40
2022-10-18T20:22:50.800Z,4.77
2022-10-18T20:25:18.910Z,4.60
2022-10-18T20:27:46.995Z,6.10
2022-10-18T20:30:15.074Z,5.97
2022-10-18T20:32:44.492Z,3.77
2022-10-18T20:35:12.547Z,8.80
2022-10-18T20:37:40.617Z,3.97
2022-10-18T20:40:10.008Z,4.00
2022-10-18T20:42:38.063Z,4.23
2022-10-18T20:45:07.761Z,3.27
2022-10-18T20:47:36.118Z,3.70
2022-10-18T20:50:06.580Z,4.20
2022-10-18T20:52:34.703Z,2.50
2022-10-18T20:55:03.424Z,3.43
2022-10-18T20:57:34.233Z,6.03
2022-10-18T21:00:05.267Z,3.00
2022-10-18T21:02:33.312Z,4.60
2022-10-18T21:05:01.372Z,2.63
2022-10-18T21:07:36.891Z,2.90
2022-10-18T21:10:07.986Z,5.40
2022-10-18T21:12:36.369Z,3.90
2022-10-18T21:15:05.025Z,3.70
2022-10-18T21:17:33.118Z,4.07
2022-10-18T21:20:01.699Z,4.00
2022-10-18T21:22:30.048Z,6.10
2022-10-18T21:24:59.649Z,4.20
2022-10-18T21:27:30.055Z,3.73
2022-10-18T21:29:58.120Z,4.73
2022-10-18T21:32:26.170Z,4.60
2022-10-18T21:34:54.238Z,2.40
2022-10-18T21:37:28.235Z,4.63
2022-10-18T21:39:56.333Z,3.53
2022-10-18T21:42:25.892Z,3.10
2022-10-18T21:44:57.417Z,4.00
2022-10-18T21:47:25.526Z,4.57
2022-10-18T21:49:53.668Z,3.53
2022-10-18T21:52:21.697Z,3.20
2022-10-18T21:54:49.778Z,4.30
2022-10-18T21:57:17.872Z,4.90
2022-10-18T21:59:47.338Z,5.20
2022-10-18T22:02:15.412Z,2.77
2022-10-18T22:04:49.050Z,2.30
2022-10-18T22:07:19.273Z,2.87
2022-10-18T22:09:47.444Z,5.33
2022-10-18T22:12:15.507Z,4.40
2022-10-18T22:14:43.544Z,3.53
2022-10-18T22:17:12.979Z,8.07
2022-10-18T22:19:41.132Z,4.30
2022-10-18T22:22:09.274Z,4.50
2022-10-18T22:24:37.429Z,4.50
2022-10-18T22:27:05.646Z,3.83
2022-10-18T22:29:33.714Z,3.50
2022-10-18T22:32:01.847Z,8.83
2022-10-18T22:34:31.293Z,2.67
2022-10-18T22:36:59.296Z,4.33
2022-10-18T22:39:30.405Z,3.57
2022-10-18T22:41:58.473Z,5.10
2022-10-18T22:44:26.654Z,3.20
2022-10-18T22:46:54.773Z,7.57
2022-10-18T22:49:22.819Z,3.90
2022-10-18T22:51:52.354Z,3.00
2022-10-18T22:54:20.494Z,12.60
2022-10-18T22:56:48.682Z,5.77
2022-10-18T22:59:16.735Z,3.30
2022-10-18T23:01:44.800Z,5.10
2022-10-18T23:04:12.848Z,4.10
2022-10-18T23:06:40.994Z,6.90
2022-10-18T23:09:11.324Z,3.87
2022-10-18T23:11:39.436Z,5.50
2022-10-18T23:14:07.648Z,4.30
2022-10-18T23:16:35.810Z,2.60
2022-10-18T23:19:04.039Z,6.17
2022-10-18T23:21:32.110Z,5.13
2022-10-18T23:24:00.289Z,2.90
2022-10-18T23:26:29.794Z,2.80
2022-10-18T23:28:57.944Z,2.60
2022-10-18T23:31:27.491Z,3.80
2022-10-18T23:33:56.341Z,2.23
2022-10-18T23:36:24.542Z,2.40
2022-10-18T23:38:52.768Z,4.27
2022-10-18T23:41:20.786Z,3.43
2022-10-18T23:43:50.242Z,3.00
2022-10-18T23:46:18.515Z,2.90
2022-10-18T23:48:49.641Z,2.30
2022-10-18T23:51:17.953Z,4.37
2022-10-18T23:53:46.336Z,3.67
2022-10-18T23:56:15.412Z,2.80
2022-10-18T23:58:43.757Z,5.97
